Ocean Cobalt — 3ESD9 — position and weather

sailwx.info

Track history (hours):
 
Tides and Currents Weather Stations Pressure Air Temp Water Temp Dewpoint Dewpoint Depression Visibility Wind Speed Wind Dir Waves Ship Positions

Ocean Cobalt

Last reported at 2018-May-29 05:19 UTC. Time now 2018-Jun-18 02:12 UTC.
Position N 01°27' E 104°31'.
Warning: this ship's position is 19 days out of date.

Length 289 m; draft 18.7 m.

Type: Cargo ship. MMSI: 370272000.

Date/timePositionNaut miles runAvg speedWind from/ knotsBaromVisibWave heightAir tempDewpointWater temp
2018-May-29 05:19N 01°27' E 104°31'410.5
2018-May-29 04:55N 01°24' E 104°28'410.1
2018-May-29 04:29N 01°21' E 104°24'5 9.8
2018-May-29 03:58N 01°18' E 104°21'5 9.3
2018-May-29 03:27N 01°16' E 104°16'4 9.6
2018-May-29 03:00N 01°16' E 104°12'5 9.3
2018-May-29 02:30N 01°16' E 104°07'4 7.1
2018-May-29 01:59N 01°17' E 104°04'3 6.8
2018-May-29 01:30N 01°17' E 104°00'1 1.7
2018-May-29 00:54N 01°17' E 103°59'0 0.5
2018-May-29 00:30N 01°17' E 103°59'0 0.1
2018-May-28 23:51N 01°17' E 103°59'0 0.0
2018-May-28 23:30N 01°17' E 103°59'0 0.0
2018-May-28 22:49N 01°17' E 103°59'0 0.0
2018-May-28 22:27N 01°17' E 103°59'0 0.0
2018-May-28 21:58N 01°17' E 103°59'0 0.0
2018-May-28 21:25N 01°17' E 103°59'0 0.0
2018-May-28 21:00N 01°17' E 103°59'0 0.0
2018-May-28 20:27N 01°17' E 103°59'0 0.0
2018-May-28 19:52N 01°17' E 103°59'0 0.0
2018-May-28 19:30N 01°17' E 103°59'0 0.0
2018-May-28 18:57N 01°17' E 103°59'0 0.0
2018-May-28 18:30N 01°17' E 103°59'0 0.0
2018-May-28 17:52N 01°17' E 103°59'0 0.0
2018-May-28 17:24N 01°17' E 103°59'0 0.4
2018-May-28 16:57N 01°17' E 103°59'0 0.5
2018-May-28 16:21N 01°17' E 103°59'0 0.0
2018-May-28 15:57N 01°17' E 103°59'0 0.1
2018-May-28 15:16N 01°17' E 103°59'0 0.0
2018-May-28 14:51N 01°17' E 103°59'0 0.0
2018-May-28 14:16N 01°17' E 103°59'0 0.1
2018-May-28 13:58N 01°17' E 103°59'0 0.0
2018-May-28 13:18N 01°17' E 103°59'0 0.0
2018-May-28 12:58N 01°17' E 103°59'0 0.0
2018-May-28 12:27N 01°17' E 103°59'0 0.0
2018-May-28 11:58N 01°17' E 103°59'0 0.0
2018-May-28 11:30N 01°17' E 103°59'0 0.0
2018-May-28 10:57N 01°17' E 103°59'0 0.0
2018-May-28 10:31N 01°17' E 103°59'0 0.0
2018-May-28 09:57N 01°17' E 103°59'0 0.0
2018-May-28 09:18N 01°17' E 103°59'0 0.0
2018-May-28 09:00N 01°17' E 103°59'0 0.0
2018-May-28 08:13N 01°17' E 103°59'0 0.0
2018-May-28 07:57N 01°17' E 103°59'0 0.1
2018-May-28 07:27N 01°17' E 103°59'0 0.2
2018-May-28 07:00N 01°17' E 103°59'1 2.8
2018-May-28 06:30N 01°16' E 103°58'1 1.9
2018-May-28 06:00N 01°15' E 103°58'2 3.5
2018-May-28 05:30N 01°14' E 103°57'2 4.8
2018-May-28 05:00N 01°13' E 103°54'3 5.4
2018-May-28 04:28N 01°12' E 103°52'3 5.7
2018-May-28 03:59N 01°11' E 103°49'3 6.4
2018-May-28 03:30N 01°09' E 103°47'4 7.3
2018-May-28 03:00N 01°06' E 103°44'4 8.6
2018-May-28 02:30N 01°04' E 103°40'4 8.4
2018-May-28 02:00N 01°05' E 103°36'5 9.9
2018-May-28 01:30N 01°07' E 103°32'510.2
2018-May-28 01:00N 01°10' E 103°27'5 9.9
2018-May-28 00:30N 01°13' E 103°24'510.0
2018-May-27 23:58N 01°16' E 103°19'8 9.9
2018-May-27 23:08N 01°21' E 103°13'2 9.8
2018-May-27 22:58N 01°22' E 103°12'  
Track history (hours):
 
Tides and Currents Weather Stations Pressure Air Temp Water Temp Dewpoint Dewpoint Depression Visibility Wind Speed Wind Dir Waves Ship Positions

Ocean Cobalt

Last reported at 2018-May-29 05:19 UTC. Time now 2018-Jun-18 02:12 UTC.
Position N 01°27' E 104°31'.
Warning: this ship's position is 19 days out of date.

Length 289 m; draft 18.7 m.

Type: Cargo ship. MMSI: 370272000.

Date/timePositionNaut miles runAvg speedWind from/ knotsBaromVisibWave heightAir tempDewpointWater temp
2018-May-29 05:19N 01°27' E 104°31'410.5
2018-May-29 04:55N 01°24' E 104°28'410.1
2018-May-29 04:29N 01°21' E 104°24'5 9.8
2018-May-29 03:58N 01°18' E 104°21'5 9.3
2018-May-29 03:27N 01°16' E 104°16'4 9.6
2018-May-29 03:00N 01°16' E 104°12'5 9.3
2018-May-29 02:30N 01°16' E 104°07'4 7.1
2018-May-29 01:59N 01°17' E 104°04'3 6.8
2018-May-29 01:30N 01°17' E 104°00'1 1.7
2018-May-29 00:54N 01°17' E 103°59'0 0.5
2018-May-29 00:30N 01°17' E 103°59'0 0.1
2018-May-28 23:51N 01°17' E 103°59'0 0.0
2018-May-28 23:30N 01°17' E 103°59'0 0.0
2018-May-28 22:49N 01°17' E 103°59'0 0.0
2018-May-28 22:27N 01°17' E 103°59'0 0.0
2018-May-28 21:58N 01°17' E 103°59'0 0.0
2018-May-28 21:25N 01°17' E 103°59'0 0.0
2018-May-28 21:00N 01°17' E 103°59'0 0.0
2018-May-28 20:27N 01°17' E 103°59'0 0.0
2018-May-28 19:52N 01°17' E 103°59'0 0.0
2018-May-28 19:30N 01°17' E 103°59'0 0.0
2018-May-28 18:57N 01°17' E 103°59'0 0.0
2018-May-28 18:30N 01°17' E 103°59'0 0.0
2018-May-28 17:52N 01°17' E 103°59'0 0.0
2018-May-28 17:24N 01°17' E 103°59'0 0.4
2018-May-28 16:57N 01°17' E 103°59'0 0.5
2018-May-28 16:21N 01°17' E 103°59'0 0.0
2018-May-28 15:57N 01°17' E 103°59'0 0.1
2018-May-28 15:16N 01°17' E 103°59'0 0.0
2018-May-28 14:51N 01°17' E 103°59'0 0.0
2018-May-28 14:16N 01°17' E 103°59'0 0.1
2018-May-28 13:58N 01°17' E 103°59'0 0.0
2018-May-28 13:18N 01°17' E 103°59'0 0.0
2018-May-28 12:58N 01°17' E 103°59'0 0.0
2018-May-28 12:27N 01°17' E 103°59'0 0.0
2018-May-28 11:58N 01°17' E 103°59'0 0.0
2018-May-28 11:30N 01°17' E 103°59'0 0.0
2018-May-28 10:57N 01°17' E 103°59'0 0.0
2018-May-28 10:31N 01°17' E 103°59'0 0.0
2018-May-28 09:57N 01°17' E 103°59'0 0.0
2018-May-28 09:18N 01°17' E 103°59'0 0.0
2018-May-28 09:00N 01°17' E 103°59'0 0.0
2018-May-28 08:13N 01°17' E 103°59'0 0.0
2018-May-28 07:57N 01°17' E 103°59'0 0.1
2018-May-28 07:27N 01°17' E 103°59'0 0.2
2018-May-28 07:00N 01°17' E 103°59'1 2.8
2018-May-28 06:30N 01°16' E 103°58'1 1.9
2018-May-28 06:00N 01°15' E 103°58'2 3.5
2018-May-28 05:30N 01°14' E 103°57'2 4.8
2018-May-28 05:00N 01°13' E 103°54'3 5.4
2018-May-28 04:28N 01°12' E 103°52'3 5.7
2018-May-28 03:59N 01°11' E 103°49'3 6.4
2018-May-28 03:30N 01°09' E 103°47'4 7.3
2018-May-28 03:00N 01°06' E 103°44'4 8.6
2018-May-28 02:30N 01°04' E 103°40'4 8.4
2018-May-28 02:00N 01°05' E 103°36'5 9.9
2018-May-28 01:30N 01°07' E 103°32'510.2
2018-May-28 01:00N 01°10' E 103°27'5 9.9
2018-May-28 00:30N 01°13' E 103°24'510.0
2018-May-27 23:58N 01°16' E 103°19'8 9.9
2018-May-27 23:08N 01°21' E 103°13'2 9.8
2018-May-27 22:58N 01°22' E 103°12'  

Dump ship's entire track history